createdAt,value
2023-01-06T00:00:29.678Z,4.1
2023-01-06T00:05:21.604Z,4.3
2023-01-06T00:10:29.510Z,4.5
2023-01-06T00:15:37.549Z,4.7
2023-01-06T00:20:44.469Z,4.9
2023-01-06T00:25:36.673Z,5.1
2023-01-06T00:30:44.442Z,5.3
2023-01-06T00:35:52.011Z,5.4
2023-01-06T00:40:44.701Z,5.6
2023-01-06T00:45:36.804Z,5.8
2023-01-06T00:50:53.170Z,6
2023-01-06T00:56:00.227Z,6.1
2023-01-06T01:01:08.183Z,6.2
2023-01-06T01:06:15.926Z,6.3
2023-01-06T01:11:22.285Z,6.4
2023-01-06T01:16:15.144Z,6.6
2023-01-06T01:21:22.854Z,6.7
2023-01-06T01:26:45.142Z,6.8
2023-01-06T01:31:53.666Z,6.9
2023-01-06T01:37:00.999Z,6.9
2023-01-06T01:42:07.628Z,6.9
2023-01-06T01:47:00.285Z,6.9
2023-01-06T01:52:07.237Z,7
2023-01-06T01:57:14.129Z,7.1
2023-01-06T02:02:23.233Z,7.2
2023-01-06T02:07:46.923Z,7.3
2023-01-06T02:12:37.997Z,7.3
2023-01-06T02:17:30.661Z,7.3
2023-01-06T02:22:38.180Z,7.3
2023-01-06T02:27:45.425Z,7.3
2023-01-06T02:32:53.296Z,7.4
2023-01-06T02:38:15.981Z,7.4
2023-01-06T02:43:23.404Z,7.5
2023-01-06T02:48:16.253Z,7.6
2023-01-06T02:53:24.258Z,7.6
2023-01-06T02:58:15.487Z,7.6
2023-01-06T03:03:40.037Z,7.6
2023-01-06T03:08:48.185Z,7.7
2023-01-06T03:13:38.859Z,7.6
2023-01-06T03:18:47.143Z,7.6
2023-01-06T03:23:55.171Z,7.6
2023-01-06T03:28:46.889Z,7.6
2023-01-06T03:33:37.413Z,7.6
2023-01-06T03:38:44.799Z,7.6
2023-01-06T03:43:48.692Z,7.4
2023-01-06T03:49:11.240Z,7.3
2023-01-06T03:54:18.888Z,7.2
2023-01-06T03:59:26.692Z,7
2023-01-06T04:04:03.650Z,6.9
2023-01-06T04:09:09.955Z,6.8
2023-01-06T04:14:02.310Z,6.6
2023-01-06T04:19:10.295Z,6.5
2023-01-06T04:24:17.077Z,6.4
2023-01-06T04:29:25.052Z,6.3
2023-01-06T04:34:33.309Z,6.3
2023-01-06T04:39:58.006Z,6.3
2023-01-06T04:45:21.194Z,6.2
2023-01-06T04:50:44.749Z,6.3
2023-01-06T04:56:07.212Z,6.2
2023-01-06T05:01:34.042Z,6.2
2023-01-06T05:06:51.527Z,6.3
2023-01-06T05:12:13.345Z,6.3
2023-01-06T05:17:21.042Z,6.3
2023-01-06T05:22:13.531Z,6.3
2023-01-06T05:27:04.366Z,6.3
2023-01-06T05:32:11.107Z,6.3
2023-01-06T05:37:19.184Z,6.2
2023-01-06T05:42:10.806Z,6.1
2023-01-06T05:47:01.859Z,6
2023-01-06T05:52:09.709Z,5.9
2023-01-06T05:57:18.412Z,5.8
2023-01-06T06:02:41.757Z,5.7
2023-01-06T06:08:05.028Z,5.7
2023-01-06T06:13:13.187Z,5.6
2023-01-06T06:18:36.037Z,5.6
2023-01-06T06:23:43.017Z,5.6
2023-01-06T06:29:06.098Z,5.8
2023-01-06T06:34:29.088Z,5.9
2023-01-06T06:39:51.670Z,6.8
2023-01-06T06:45:15.350Z,9.1
2023-01-06T06:50:38.614Z,11.6
2023-01-06T06:56:01.922Z,13.4
2023-01-06T07:01:25.674Z,15
2023-01-06T07:06:49.594Z,15.3
2023-01-06T07:11:58.178Z,15.6
2023-01-06T07:16:50.818Z,16.2
2023-01-06T07:22:14.739Z,17.2
2023-01-06T07:27:38.122Z,19.7
2023-01-06T07:33:01.721Z,22.4
2023-01-06T07:38:25.435Z,25.8
2023-01-06T07:43:49.064Z,28.4
2023-01-06T07:49:13.184Z,28.9
2023-01-06T07:54:38.032Z,30.1
2023-01-06T07:59:46.220Z,33.6
2023-01-06T08:05:10.791Z,37.2
2023-01-06T08:10:34.795Z,40.6
2023-01-06T08:15:58.392Z,43.4
2023-01-06T08:21:06.593Z,45
2023-01-06T08:26:30.345Z,46.3
2023-01-06T08:31:59.324Z,48.6
2023-01-06T08:37:26.087Z,49.3
2023-01-06T08:42:49.793Z,50.8
2023-01-06T08:48:13.215Z,54
2023-01-06T08:53:38.275Z,45.6
2023-01-06T08:58:30.180Z,43.1
2023-01-06T09:03:53.729Z,46.1
2023-01-06T09:09:02.593Z,49
2023-01-06T09:14:27.997Z,54.3
2023-01-06T09:19:51.967Z,52.3
2023-01-06T09:25:16.163Z,44.6
2023-01-06T09:30:24.260Z,45.1
2023-01-06T09:35:48.485Z,50.6
2023-01-06T09:41:12.078Z,56.1
2023-01-06T09:46:36.241Z,51.5
2023-01-06T09:51:44.222Z,47.9
2023-01-06T09:56:52.376Z,53.3
2023-01-06T10:02:16.941Z,55.5
2023-01-06T10:07:41.073Z,51.8
2023-01-06T10:18:13.513Z,53.3
2023-01-06T10:23:37.446Z,53.3
2023-01-06T10:29:01.581Z,50.1
2023-01-06T10:34:29.108Z,53.8
2023-01-06T10:39:55.377Z,57.2
2023-01-06T10:45:19.591Z,44.8
2023-01-06T10:50:28.373Z,38.3
2023-01-06T10:55:36.629Z,34.5
2023-01-06T11:00:45.082Z,33.8
2023-01-06T11:06:30.557Z,36.9
2023-01-06T11:12:02.424Z,42.7
2023-01-06T11:17:26.441Z,48.6
2023-01-06T11:22:36.423Z,53.2
2023-01-06T11:28:00.418Z,58.3
2023-01-06T11:33:24.050Z,53.1
2023-01-06T11:38:32.366Z,47.3
2023-01-06T11:44:09.276Z,50
2023-01-06T11:49:34.745Z,54.3
2023-01-06T11:54:58.451Z,56.8
2023-01-06T12:00:22.364Z,49.3
2023-01-06T12:05:46.893Z,46.6
2023-01-06T12:11:10.015Z,45.5
2023-01-06T12:17:01.081Z,40.6
2023-01-06T12:22:08.845Z,37.9
2023-01-06T12:27:32.590Z,39.8
2023-01-06T12:32:56.480Z,41.9
2023-01-06T12:38:04.825Z,43.4
2023-01-06T12:43:28.918Z,43.3
2023-01-06T12:48:58.503Z,41.1
2023-01-06T12:54:32.112Z,40.4
2023-01-06T12:59:55.466Z,38.4
2023-01-06T13:05:04.481Z,37.8
2023-01-06T13:10:27.341Z,37.8
2023-01-06T13:15:51.228Z,37.8
2023-01-06T13:21:17.184Z,34.4
2023-01-06T13:26:41.198Z,30.9
2023-01-06T13:36:57.276Z,25.6
2023-01-06T13:42:20.534Z,23.4
2023-01-06T13:47:44.526Z,21.6
2023-01-06T13:52:37.247Z,20.1
2023-01-06T13:58:01.203Z,18.9
2023-01-06T14:03:10.733Z,17.9
2023-01-06T14:08:18.900Z,16.9
2023-01-06T14:13:42.863Z,15.9
2023-01-06T14:18:51.602Z,15.3
2023-01-06T14:24:15.099Z,15.1
2023-01-06T14:29:38.684Z,15.9
2023-01-06T14:35:03.664Z,16.1
2023-01-06T14:40:27.333Z,15.4
2023-01-06T14:45:35.593Z,14.7
2023-01-06T14:51:05.325Z,13.9
2023-01-06T14:56:13.336Z,13.3
2023-01-06T15:01:21.253Z,12.7
2023-01-06T15:06:29.555Z,12.1
2023-01-06T15:11:52.386Z,11.6
2023-01-06T15:17:11.238Z,10.9
2023-01-06T15:22:33.953Z,10.4
2023-01-06T15:27:26.508Z,10
2023-01-06T15:32:34.980Z,9.5
2023-01-06T15:37:58.788Z,9
2023-01-06T15:43:23.152Z,8.5
2023-01-06T15:48:46.613Z,8.2
2023-01-06T15:53:54.012Z,7.9
2023-01-06T15:59:21.210Z,7.7
2023-01-06T16:04:14.294Z,7.5
2023-01-06T16:09:05.659Z,7.3
2023-01-06T16:13:56.631Z,7.1
2023-01-06T16:18:48.985Z,6.9
2023-01-06T16:24:12.744Z,6.8
2023-01-06T16:29:20.049Z,6.8
2023-01-06T16:34:27.889Z,6.7
2023-01-06T16:39:35.248Z,6.6
2023-01-06T16:44:58.856Z,6.6
2023-01-06T16:49:50.949Z,6.4
2023-01-06T16:55:15.335Z,6.3
2023-01-06T17:00:23.341Z,6.3
2023-01-06T17:05:32.425Z,6.3
2023-01-06T17:10:55.940Z,6.2
2023-01-06T17:16:19.615Z,6.2
2023-01-06T17:21:27.575Z,6.1
2023-01-06T17:26:51.334Z,6.1
2023-01-06T17:31:59.221Z,6.2
2023-01-06T17:37:07.090Z,6.2
2023-01-06T17:42:30.899Z,6.2
2023-01-06T17:47:22.755Z,6.1
2023-01-06T17:52:45.277Z,6.1
2023-01-06T17:57:37.420Z,6.1
2023-01-06T18:03:00.574Z,6.1
2023-01-06T18:08:08.080Z,6
2023-01-06T18:13:31.868Z,5.8
2023-01-06T18:18:56.137Z,5.7
2023-01-06T18:23:48.518Z,5.6
2023-01-06T18:29:13.356Z,5.5
2023-01-06T18:34:21.569Z,5.6
2023-01-06T18:39:29.437Z,5.6
2023-01-06T18:44:38.326Z,5.6
2023-01-06T18:49:46.362Z,5.6
2023-01-06T18:54:38.633Z,5.6
2023-01-06T18:59:31.594Z,5.5
2023-01-06T19:04:39.215Z,5.3
2023-01-06T19:10:04.834Z,5.2
2023-01-06T19:15:29.288Z,5
2023-01-06T19:20:36.821Z,4.9
2023-01-06T19:25:48.509Z,4.8
2023-01-06T19:30:43.971Z,4.8
2023-01-06T19:35:56.478Z,4.8
2023-01-06T19:41:09.611Z,4.8
2023-01-06T19:46:36.112Z,4.8
2023-01-06T19:51:46.429Z,4.7
2023-01-06T19:56:56.577Z,4.7
2023-01-06T20:02:09.917Z,4.8
2023-01-06T20:07:21.543Z,4.8
2023-01-06T20:12:30.362Z,4.6
2023-01-06T20:17:56.732Z,4.5
2023-01-06T20:22:51.868Z,4.4
2023-01-06T20:28:20.241Z,4.3
2023-01-06T20:33:02.518Z,4.2
2023-01-06T20:38:28.873Z,4.1
2023-01-06T20:43:54.496Z,4
2023-01-06T20:49:02.711Z,3.9
2023-01-06T20:54:25.380Z,3.9
2023-01-06T20:59:33.545Z,3.8
2023-01-06T21:04:43.856Z,3.8
2023-01-06T21:09:51.048Z,3.7
2023-01-06T21:14:59.391Z,3.6
2023-01-06T21:19:51.813Z,3.5
2023-01-06T21:25:14.538Z,3.5
2023-01-06T21:30:38.414Z,3.4
2023-01-06T21:35:46.137Z,3.3
2023-01-06T21:40:37.670Z,3.3
2023-01-06T21:45:29.796Z,3.1
2023-01-06T21:50:54.532Z,3
2023-01-06T21:56:02.236Z,2.8
2023-01-06T22:01:10.059Z,2.6
2023-01-06T22:06:33.422Z,2.4
2023-01-06T22:11:41.272Z,2.2
2023-01-06T22:17:05.429Z,2.1
2023-01-06T22:22:11.469Z,1.9
2023-01-06T22:27:04.289Z,1.8
2023-01-06T22:32:28.358Z,1.7
2023-01-06T22:37:35.809Z,1.6
2023-01-06T22:42:58.943Z,1.6
2023-01-06T22:48:07.458Z,1.5
2023-01-06T22:53:14.050Z,1.4
2023-01-06T22:58:06.706Z,1.3
2023-01-06T23:03:32.251Z,1
2023-01-06T23:08:23.252Z,0.8
2023-01-06T23:13:26.687Z,0.6
2023-01-06T23:18:50.490Z,0.4
2023-01-06T23:24:00.375Z,0.3
2023-01-06T23:29:23.852Z,0.1
2023-01-06T23:34:16.250Z,0.1
2023-01-06T23:39:38.882Z,-0.1
2023-01-06T23:45:12.034Z,-0.3
2023-01-06T23:49:49.247Z,-0.4
2023-01-06T23:55:12.208Z,-0.6
